sensor_id;sensor_type;location;lat;lon;timestamp;temperature;humidity
76996;DHT22;65929;49.062;10.338;2023-04-24T00:00:30;9.00;87.50
76996;DHT22;65929;49.062;10.338;2023-04-24T00:01:32;9.00;87.40
76996;DHT22;65929;49.062;10.338;2023-04-24T00:02:34;8.90;87.60
76996;DHT22;65929;49.062;10.338;2023-04-24T00:03:39;8.90;87.90
76996;DHT22;65929;49.062;10.338;2023-04-24T00:04:43;8.90;88.00
76996;DHT22;65929;49.062;10.338;2023-04-24T00:05:47;8.90;88.00
76996;DHT22;65929;49.062;10.338;2023-04-24T00:06:48;8.90;88.00
76996;DHT22;65929;49.062;10.338;2023-04-24T00:07:54;8.90;87.80
76996;DHT22;65929;49.062;10.338;2023-04-24T00:08:55;8.90;88.10
76996;DHT22;65929;49.062;10.338;2023-04-24T00:09:57;8.90;88.20
76996;DHT22;65929;49.062;10.338;2023-04-24T00:10:58;8.90;87.90
76996;DHT22;65929;49.062;10.338;2023-04-24T00:11:59;8.80;88.30
76996;DHT22;65929;49.062;10.338;2023-04-24T00:13:00;8.80;88.30
76996;DHT22;65929;49.062;10.338;2023-04-24T00:14:01;8.80;88.50
76996;DHT22;65929;49.062;10.338;2023-04-24T00:15:03;8.80;88.20
76996;DHT22;65929;49.062;10.338;2023-04-24T00:16:05;8.80;88.20
76996;DHT22;65929;49.062;10.338;2023-04-24T00:17:06;8.80;88.10
76996;DHT22;65929;49.062;10.338;2023-04-24T00:18:07;8.80;88.40
76996;DHT22;65929;49.062;10.338;2023-04-24T00:19:10;8.80;88.50
76996;DHT22;65929;49.062;10.338;2023-04-24T00:20:12;8.80;88.50
76996;DHT22;65929;49.062;10.338;2023-04-24T00:21:15;8.80;88.50
76996;DHT22;65929;49.062;10.338;2023-04-24T00:22:19;8.70;88.70
76996;DHT22;65929;49.062;10.338;2023-04-24T00:23:21;8.70;88.40
76996;DHT22;65929;49.062;10.338;2023-04-24T00:24:22;8.80;88.40
76996;DHT22;65929;49.062;10.338;2023-04-24T00:25:23;8.70;88.50
76996;DHT22;65929;49.062;10.338;2023-04-24T00:26:24;8.70;88.70
76996;DHT22;65929;49.062;10.338;2023-04-24T00:27:25;8.70;88.80
76996;DHT22;65929;49.062;10.338;2023-04-24T00:28:26;8.70;89.00
76996;DHT22;65929;49.062;10.338;2023-04-24T00:29:27;8.60;89.00
76996;DHT22;65929;49.062;10.338;2023-04-24T00:30:29;8.60;89.10
76996;DHT22;65929;49.062;10.338;2023-04-24T00:31:30;8.60;89.30
76996;DHT22;65929;49.062;10.338;2023-04-24T00:32:34;8.60;89.30
76996;DHT22;65929;49.062;10.338;2023-04-24T00:33:35;8.60;89.30
76996;DHT22;65929;49.062;10.338;2023-04-24T00:34:38;8.60;89.40
76996;DHT22;65929;49.062;10.338;2023-04-24T00:35:39;8.60;89.30
76996;DHT22;65929;49.062;10.338;2023-04-24T00:36:46;8.60;89.30
76996;DHT22;65929;49.062;10.338;2023-04-24T00:37:47;8.60;89.30
76996;DHT22;65929;49.062;10.338;2023-04-24T00:38:54;8.60;89.30
76996;DHT22;65929;49.062;10.338;2023-04-24T00:39:55;8.60;89.40
76996;DHT22;65929;49.062;10.338;2023-04-24T00:40:56;8.60;89.50
76996;DHT22;65929;49.062;10.338;2023-04-24T00:41:57;8.60;89.60
76996;DHT22;65929;49.062;10.338;2023-04-24T00:42:58;8.50;89.70
76996;DHT22;65929;49.062;10.338;2023-04-24T00:44:00;8.50;89.90
76996;DHT22;65929;49.062;10.338;2023-04-24T00:45:01;8.50;89.90
76996;DHT22;65929;49.062;10.338;2023-04-24T00:46:04;8.50;89.90
76996;DHT22;65929;49.062;10.338;2023-04-24T00:47:05;8.50;89.90
76996;DHT22;65929;49.062;10.338;2023-04-24T00:48:07;8.50;89.90
76996;DHT22;65929;49.062;10.338;2023-04-24T00:49:08;8.50;89.90
76996;DHT22;65929;49.062;10.338;2023-04-24T00:50:11;8.50;90.00
76996;DHT22;65929;49.062;10.338;2023-04-24T00:51:14;8.50;90.10
76996;DHT22;65929;49.062;10.338;2023-04-24T00:52:15;8.50;90.10
76996;DHT22;65929;49.062;10.338;2023-04-24T00:53:18;8.50;90.20
76996;DHT22;65929;49.062;10.338;2023-04-24T00:54:19;8.40;90.20
76996;DHT22;65929;49.062;10.338;2023-04-24T00:55:20;8.40;90.30
76996;DHT22;65929;49.062;10.338;2023-04-24T00:56:21;8.40;90.40
76996;DHT22;65929;49.062;10.338;2023-04-24T00:57:24;8.40;90.40
76996;DHT22;65929;49.062;10.338;2023-04-24T00:58:26;8.40;90.40
76996;DHT22;65929;49.062;10.338;2023-04-24T00:59:27;8.40;90.50
76996;DHT22;65929;49.062;10.338;2023-04-24T01:00:28;8.40;90.60
76996;DHT22;65929;49.062;10.338;2023-04-24T01:01:30;8.40;90.70
76996;DHT22;65929;49.062;10.338;2023-04-24T01:02:32;8.40;90.70
76996;DHT22;65929;49.062;10.338;2023-04-24T01:03:35;8.40;90.70
76996;DHT22;65929;49.062;10.338;2023-04-24T01:04:38;8.40;90.80
76996;DHT22;65929;49.062;10.338;2023-04-24T01:05:40;8.40;90.80
76996;DHT22;65929;49.062;10.338;2023-04-24T01:06:42;8.40;90.70
76996;DHT22;65929;49.062;10.338;2023-04-24T01:07:45;8.40;90.70
76996;DHT22;65929;49.062;10.338;2023-04-24T01:08:48;8.40;90.70
76996;DHT22;65929;49.062;10.338;2023-04-24T01:09:49;8.40;90.70
76996;DHT22;65929;49.062;10.338;2023-04-24T01:10:52;8.40;90.70
76996;DHT22;65929;49.062;10.338;2023-04-24T01:11:53;8.40;90.90
76996;DHT22;65929;49.062;10.338;2023-04-24T01:12:54;8.30;90.90
76996;DHT22;65929;49.062;10.338;2023-04-24T01:13:56;8.30;91.00
76996;DHT22;65929;49.062;10.338;2023-04-24T01:14:58;8.30;91.00
76996;DHT22;65929;49.062;10.338;2023-04-24T01:15:59;8.30;91.00
76996;DHT22;65929;49.062;10.338;2023-04-24T01:17:01;8.30;91.10
76996;DHT22;65929;49.062;10.338;2023-04-24T01:18:03;8.30;91.20
76996;DHT22;65929;49.062;10.338;2023-04-24T01:19:04;8.30;91.20
76996;DHT22;65929;49.062;10.338;2023-04-24T01:20:06;8.30;91.30
76996;DHT22;65929;49.062;10.338;2023-04-24T01:21:09;8.30;91.40
76996;DHT22;65929;49.062;10.338;2023-04-24T01:22:15;8.30;91.40
76996;DHT22;65929;49.062;10.338;2023-04-24T01:23:17;8.30;91.30
76996;DHT22;65929;49.062;10.338;2023-04-24T01:24:21;8.30;91.20
76996;DHT22;65929;49.062;10.338;2023-04-24T01:25:22;8.40;91.20
76996;DHT22;65929;49.062;10.338;2023-04-24T01:26:23;8.30;91.20
76996;DHT22;65929;49.062;10.338;2023-04-24T01:27:29;8.40;91.10
76996;DHT22;65929;49.062;10.338;2023-04-24T01:28:31;8.40;91.00
76996;DHT22;65929;49.062;10.338;2023-04-24T01:29:32;8.40;91.10
76996;DHT22;65929;49.062;10.338;2023-04-24T01:30:34;8.40;91.10
76996;DHT22;65929;49.062;10.338;2023-04-24T01:31:35;8.40;91.00
76996;DHT22;65929;49.062;10.338;2023-04-24T01:32:37;8.40;91.00
76996;DHT22;65929;49.062;10.338;2023-04-24T01:33:38;8.40;91.00
76996;DHT22;65929;49.062;10.338;2023-04-24T01:34:39;8.40;90.90
76996;DHT22;65929;49.062;10.338;2023-04-24T01:35:40;8.40;90.90
76996;DHT22;65929;49.062;10.338;2023-04-24T01:36:41;8.40;90.90
76996;DHT22;65929;49.062;10.338;2023-04-24T01:37:45;8.40;90.90
76996;DHT22;65929;49.062;10.338;2023-04-24T01:38:46;8.40;90.90
76996;DHT22;65929;49.062;10.338;2023-04-24T01:39:47;8.40;91.00
76996;DHT22;65929;49.062;10.338;2023-04-24T01:40:48;8.40;90.90
76996;DHT22;65929;49.062;10.338;2023-04-24T01:41:50;8.40;90.80
76996;DHT22;65929;49.062;10.338;2023-04-24T01:42:51;8.40;90.80
76996;DHT22;65929;49.062;10.338;2023-04-24T01:43:53;8.40;90.70
76996;DHT22;65929;49.062;10.338;2023-04-24T01:44:55;8.40;90.80
76996;DHT22;65929;49.062;10.338;2023-04-24T01:45:59;8.40;90.70
76996;DHT22;65929;49.062;10.338;2023-04-24T01:47:01;8.40;90.60
76996;DHT22;65929;49.062;10.338;2023-04-24T01:48:02;8.40;90.70
76996;DHT22;65929;49.062;10.338;2023-04-24T01:49:03;8.40;90.60
76996;DHT22;65929;49.062;10.338;2023-04-24T01:50:05;8.40;90.60
76996;DHT22;65929;49.062;10.338;2023-04-24T01:51:09;8.40;90.60
76996;DHT22;65929;49.062;10.338;2023-04-24T01:52:10;8.50;90.50
76996;DHT22;65929;49.062;10.338;2023-04-24T01:53:13;8.50;90.40
76996;DHT22;65929;49.062;10.338;2023-04-24T01:54:14;8.50;90.40
76996;DHT22;65929;49.062;10.338;2023-04-24T01:55:15;8.50;90.40
76996;DHT22;65929;49.062;10.338;2023-04-24T01:56:17;8.50;90.50
76996;DHT22;65929;49.062;10.338;2023-04-24T01:57:18;8.40;90.60
76996;DHT22;65929;49.062;10.338;2023-04-24T01:58:19;8.40;90.60
76996;DHT22;65929;49.062;10.338;2023-04-24T01:59:23;8.40;90.70
76996;DHT22;65929;49.062;10.338;2023-04-24T02:00:24;8.40;90.70
76996;DHT22;65929;49.062;10.338;2023-04-24T02:01:25;8.40;90.70
76996;DHT22;65929;49.062;10.338;2023-04-24T02:02:26;8.40;90.70
76996;DHT22;65929;49.062;10.338;2023-04-24T02:03:28;8.40;90.70
76996;DHT22;65929;49.062;10.338;2023-04-24T02:04:29;8.40;90.80
76996;DHT22;65929;49.062;10.338;2023-04-24T02:05:30;8.40;90.80
76996;DHT22;65929;49.062;10.338;2023-04-24T02:06:31;8.40;90.90
76996;DHT22;65929;49.062;10.338;2023-04-24T02:07:32;8.40;91.00
76996;DHT22;65929;49.062;10.338;2023-04-24T02:08:35;8.40;91.00
76996;DHT22;65929;49.062;10.338;2023-04-24T02:09:36;8.40;91.10
76996;DHT22;65929;49.062;10.338;2023-04-24T02:10:36;8.40;91.10
76996;DHT22;65929;49.062;10.338;2023-04-24T02:11:37;8.40;91.10
76996;DHT22;65929;49.062;10.338;2023-04-24T02:12:38;8.40;91.20
76996;DHT22;65929;49.062;10.338;2023-04-24T02:13:39;8.40;91.20
76996;DHT22;65929;49.062;10.338;2023-04-24T02:14:40;8.40;91.40
76996;DHT22;65929;49.062;10.338;2023-04-24T02:15:42;8.40;91.40
76996;DHT22;65929;49.062;10.338;2023-04-24T02:16:43;8.40;91.50
76996;DHT22;65929;49.062;10.338;2023-04-24T02:17:44;8.40;91.50
76996;DHT22;65929;49.062;10.338;2023-04-24T02:18:45;8.40;91.60
76996;DHT22;65929;49.062;10.338;2023-04-24T02:19:46;8.30;91.70
76996;DHT22;65929;49.062;10.338;2023-04-24T02:20:47;8.30;91.80
76996;DHT22;65929;49.062;10.338;2023-04-24T02:21:48;8.30;91.90
76996;DHT22;65929;49.062;10.338;2023-04-24T02:22:49;8.30;92.00
76996;DHT22;65929;49.062;10.338;2023-04-24T02:23:52;8.30;92.10
76996;DHT22;65929;49.062;10.338;2023-04-24T02:24:53;8.30;92.20
76996;DHT22;65929;49.062;10.338;2023-04-24T02:25:54;8.20;92.20
76996;DHT22;65929;49.062;10.338;2023-04-24T02:26:55;8.20;92.30
76996;DHT22;65929;49.062;10.338;2023-04-24T02:27:56;8.20;92.40
76996;DHT22;65929;49.062;10.338;2023-04-24T02:28:57;8.20;92.40
76996;DHT22;65929;49.062;10.338;2023-04-24T02:29:58;8.20;92.50
76996;DHT22;65929;49.062;10.338;2023-04-24T02:30:59;8.20;92.50
76996;DHT22;65929;49.062;10.338;2023-04-24T02:32:01;8.10;92.50
76996;DHT22;65929;49.062;10.338;2023-04-24T02:33:02;8.10;92.40
76996;DHT22;65929;49.062;10.338;2023-04-24T02:34:03;8.10;92.40
76996;DHT22;65929;49.062;10.338;2023-04-24T02:35:05;8.10;92.40
76996;DHT22;65929;49.062;10.338;2023-04-24T02:36:07;8.10;92.30
76996;DHT22;65929;49.062;10.338;2023-04-24T02:37:08;8.10;92.40
76996;DHT22;65929;49.062;10.338;2023-04-24T02:38:09;8.10;92.40
76996;DHT22;65929;49.062;10.338;2023-04-24T02:39:11;8.10;92.50
76996;DHT22;65929;49.062;10.338;2023-04-24T02:40:12;8.10;92.40
76996;DHT22;65929;49.062;10.338;2023-04-24T02:41:13;8.10;92.30
76996;DHT22;65929;49.062;10.338;2023-04-24T02:42:14;8.10;92.30
76996;DHT22;65929;49.062;10.338;2023-04-24T02:43:15;8.10;92.30
76996;DHT22;65929;49.062;10.338;2023-04-24T02:44:16;8.00;92.30
76996;DHT22;65929;49.062;10.338;2023-04-24T02:45:17;8.00;92.40
76996;DHT22;65929;49.062;10.338;2023-04-24T02:46:18;8.00;92.30
76996;DHT22;65929;49.062;10.338;2023-04-24T02:47:19;8.00;92.30
76996;DHT22;65929;49.062;10.338;2023-04-24T02:48:20;8.00;92.30
76996;DHT22;65929;49.062;10.338;2023-04-24T02:49:21;8.00;92.40
76996;DHT22;65929;49.062;10.338;2023-04-24T02:50:22;8.00;92.50
76996;DHT22;65929;49.062;10.338;2023-04-24T02:51:23;8.00;92.50
76996;DHT22;65929;49.062;10.338;2023-04-24T02:52:24;8.00;92.40
76996;DHT22;65929;49.062;10.338;2023-04-24T02:53:25;8.00;92.40
76996;DHT22;65929;49.062;10.338;2023-04-24T02:54:28;8.00;92.30
76996;DHT22;65929;49.062;10.338;2023-04-24T02:55:29;8.00;92.10
76996;DHT22;65929;49.062;10.338;2023-04-24T02:56:29;8.00;92.00
76996;DHT22;65929;49.062;10.338;2023-04-24T02:57:30;8.00;91.90
76996;DHT22;65929;49.062;10.338;2023-04-24T02:58:31;8.00;91.80
76996;DHT22;65929;49.062;10.338;2023-04-24T02:59:32;8.00;91.60
76996;DHT22;65929;49.062;10.338;2023-04-24T03:00:34;8.00;91.50
76996;DHT22;65929;49.062;10.338;2023-04-24T03:01:35;8.00;91.40
76996;DHT22;65929;49.062;10.338;2023-04-24T03:02:38;8.00;91.20
76996;DHT22;65929;49.062;10.338;2023-04-24T03:03:39;8.00;91.00
76996;DHT22;65929;49.062;10.338;2023-04-24T03:04:40;8.00;90.80
76996;DHT22;65929;49.062;10.338;2023-04-24T03:05:43;8.10;90.70
76996;DHT22;65929;49.062;10.338;2023-04-24T03:06:44;8.10;90.60
76996;DHT22;65929;49.062;10.338;2023-04-24T03:07:46;8.10;90.40
76996;DHT22;65929;49.062;10.338;2023-04-24T03:08:47;8.10;90.10
76996;DHT22;65929;49.062;10.338;2023-04-24T03:09:49;8.10;89.90
76996;DHT22;65929;49.062;10.338;2023-04-24T03:10:50;8.10;89.90
76996;DHT22;65929;49.062;10.338;2023-04-24T03:11:51;8.10;89.80
76996;DHT22;65929;49.062;10.338;2023-04-24T03:14:09;8.10;89.50
76996;DHT22;65929;49.062;10.338;2023-04-24T03:15:10;8.10;89.30
76996;DHT22;65929;49.062;10.338;2023-04-24T03:16:11;8.10;89.30
76996;DHT22;65929;49.062;10.338;2023-04-24T03:17:12;8.10;89.40
76996;DHT22;65929;49.062;10.338;2023-04-24T03:18:13;8.10;89.10
76996;DHT22;65929;49.062;10.338;2023-04-24T03:19:14;8.10;89.00
76996;DHT22;65929;49.062;10.338;2023-04-24T03:20:15;8.20;88.90
76996;DHT22;65929;49.062;10.338;2023-04-24T03:21:16;8.20;88.90
76996;DHT22;65929;49.062;10.338;2023-04-24T03:22:17;8.20;88.90
76996;DHT22;65929;49.062;10.338;2023-04-24T03:23:18;8.20;88.90
76996;DHT22;65929;49.062;10.338;2023-04-24T03:24:19;8.20;88.80
76996;DHT22;65929;49.062;10.338;2023-04-24T03:25:22;8.20;88.80
76996;DHT22;65929;49.062;10.338;2023-04-24T03:26:23;8.20;88.70
76996;DHT22;65929;49.062;10.338;2023-04-24T03:27:24;8.20;88.80
76996;DHT22;65929;49.062;10.338;2023-04-24T03:28:25;8.20;88.70
76996;DHT22;65929;49.062;10.338;2023-04-24T03:29:27;8.20;88.70
76996;DHT22;65929;49.062;10.338;2023-04-24T03:30:28;8.10;88.70
76996;DHT22;65929;49.062;10.338;2023-04-24T03:31:28;8.10;88.90
76996;DHT22;65929;49.062;10.338;2023-04-24T03:32:30;8.10;88.80
76996;DHT22;65929;49.062;10.338;2023-04-24T03:33:32;8.10;88.90
76996;DHT22;65929;49.062;10.338;2023-04-24T03:34:33;8.10;89.00
76996;DHT22;65929;49.062;10.338;2023-04-24T03:35:35;8.10;89.10
76996;DHT22;65929;49.062;10.338;2023-04-24T03:36:36;8.10;89.20
76996;DHT22;65929;49.062;10.338;2023-04-24T03:37:37;8.00;89.50
76996;DHT22;65929;49.062;10.338;2023-04-24T03:38:38;8.00;89.50
76996;DHT22;65929;49.062;10.338;2023-04-24T03:39:39;8.00;89.50
76996;DHT22;65929;49.062;10.338;2023-04-24T03:40:42;8.00;89.60
76996;DHT22;65929;49.062;10.338;2023-04-24T03:41:43;8.00;89.60
76996;DHT22;65929;49.062;10.338;2023-04-24T03:42:44;8.00;89.70
76996;DHT22;65929;49.062;10.338;2023-04-24T03:43:45;8.00;89.80
76996;DHT22;65929;49.062;10.338;2023-04-24T03:44:45;8.00;89.90
76996;DHT22;65929;49.062;10.338;2023-04-24T03:45:46;8.00;90.00
76996;DHT22;65929;49.062;10.338;2023-04-24T03:46:47;8.00;89.90
76996;DHT22;65929;49.062;10.338;2023-04-24T03:47:50;8.00;90.00
76996;DHT22;65929;49.062;10.338;2023-04-24T03:48:51;7.90;89.90
76996;DHT22;65929;49.062;10.338;2023-04-24T03:49:52;7.90;90.00
76996;DHT22;65929;49.062;10.338;2023-04-24T03:50:55;8.00;90.00
76996;DHT22;65929;49.062;10.338;2023-04-24T03:51:56;7.90;89.90
76996;DHT22;65929;49.062;10.338;2023-04-24T03:52:59;7.90;89.90
76996;DHT22;65929;49.062;10.338;2023-04-24T03:54:01;7.80;90.00
76996;DHT22;65929;49.062;10.338;2023-04-24T03:55:02;7.80;90.10
76996;DHT22;65929;49.062;10.338;2023-04-24T03:56:04;7.80;90.10
76996;DHT22;65929;49.062;10.338;2023-04-24T03:57:05;7.80;90.10
76996;DHT22;65929;49.062;10.338;2023-04-24T03:58:06;7.80;90.10
76996;DHT22;65929;49.062;10.338;2023-04-24T03:59:07;7.90;90.10
76996;DHT22;65929;49.062;10.338;2023-04-24T04:00:10;7.90;90.00
76996;DHT22;65929;49.062;10.338;2023-04-24T04:01:11;7.90;90.00
76996;DHT22;65929;49.062;10.338;2023-04-24T04:02:12;7.90;90.00
76996;DHT22;65929;49.062;10.338;2023-04-24T04:03:13;7.90;90.00
76996;DHT22;65929;49.062;10.338;2023-04-24T04:04:17;7.90;89.90
76996;DHT22;65929;49.062;10.338;2023-04-24T04:05:18;7.90;90.00
76996;DHT22;65929;49.062;10.338;2023-04-24T04:06:19;7.90;90.00
76996;DHT22;65929;49.062;10.338;2023-04-24T04:07:22;7.80;90.10
76996;DHT22;65929;49.062;10.338;2023-04-24T04:08:23;7.80;90.30
76996;DHT22;65929;49.062;10.338;2023-04-24T04:09:24;7.80;90.40
76996;DHT22;65929;49.062;10.338;2023-04-24T04:10:24;7.80;90.40
76996;DHT22;65929;49.062;10.338;2023-04-24T04:11:27;7.80;90.40
76996;DHT22;65929;49.062;10.338;2023-04-24T04:12:28;7.80;90.40
76996;DHT22;65929;49.062;10.338;2023-04-24T04:13:29;7.80;90.30
76996;DHT22;65929;49.062;10.338;2023-04-24T04:14:30;7.90;90.20
76996;DHT22;65929;49.062;10.338;2023-04-24T04:15:30;7.80;90.30
76996;DHT22;65929;49.062;10.338;2023-04-24T04:16:31;7.90;90.40
76996;DHT22;65929;49.062;10.338;2023-04-24T04:17:32;7.80;90.40
76996;DHT22;65929;49.062;10.338;2023-04-24T04:18:34;7.80;90.40
76996;DHT22;65929;49.062;10.338;2023-04-24T04:19:35;7.80;90.40
76996;DHT22;65929;49.062;10.338;2023-04-24T04:20:44;7.80;90.40
76996;DHT22;65929;49.062;10.338;2023-04-24T04:21:45;7.80;90.40
76996;DHT22;65929;49.062;10.338;2023-04-24T04:22:46;7.80;90.40
76996;DHT22;65929;49.062;10.338;2023-04-24T04:23:47;7.80;90.30
76996;DHT22;65929;49.062;10.338;2023-04-24T04:24:51;7.80;90.30
76996;DHT22;65929;49.062;10.338;2023-04-24T04:25:52;7.80;90.30
76996;DHT22;65929;49.062;10.338;2023-04-24T04:26:55;7.90;90.20
76996;DHT22;65929;49.062;10.338;2023-04-24T04:27:58;7.90;90.10
76996;DHT22;65929;49.062;10.338;2023-04-24T04:29:00;7.90;90.00
76996;DHT22;65929;49.062;10.338;2023-04-24T04:30:01;7.90;90.00
76996;DHT22;65929;49.062;10.338;2023-04-24T04:31:05;7.90;90.00
76996;DHT22;65929;49.062;10.338;2023-04-24T04:32:06;7.90;90.00
76996;DHT22;65929;49.062;10.338;2023-04-24T04:33:07;7.90;89.80
76996;DHT22;65929;49.062;10.338;2023-04-24T04:34:08;7.90;89.80
76996;DHT22;65929;49.062;10.338;2023-04-24T04:35:09;8.00;89.80
76996;DHT22;65929;49.062;10.338;2023-04-24T04:36:10;8.00;89.90
76996;DHT22;65929;49.062;10.338;2023-04-24T04:37:12;8.00;89.70
76996;DHT22;65929;49.062;10.338;2023-04-24T04:38:15;8.00;89.90
76996;DHT22;65929;49.062;10.338;2023-04-24T04:39:16;7.90;90.00
76996;DHT22;65929;49.062;10.338;2023-04-24T04:40:19;7.90;90.20
76996;DHT22;65929;49.062;10.338;2023-04-24T04:41:20;7.90;90.30
76996;DHT22;65929;49.062;10.338;2023-04-24T04:42:22;7.80;90.40
76996;DHT22;65929;49.062;10.338;2023-04-24T04:43:24;7.90;90.40
76996;DHT22;65929;49.062;10.338;2023-04-24T04:44:25;7.80;90.50
76996;DHT22;65929;49.062;10.338;2023-04-24T04:45:28;7.80;90.60
76996;DHT22;65929;49.062;10.338;2023-04-24T04:46:29;7.80;90.70
76996;DHT22;65929;49.062;10.338;2023-04-24T04:47:33;7.80;90.90
76996;DHT22;65929;49.062;10.338;2023-04-24T04:48:34;7.90;90.90
76996;DHT22;65929;49.062;10.338;2023-04-24T04:49:35;7.90;90.90
76996;DHT22;65929;49.062;10.338;2023-04-24T04:50:39;8.00;90.70
76996;DHT22;65929;49.062;10.338;2023-04-24T04:51:40;8.00;90.60
76996;DHT22;65929;49.062;10.338;2023-04-24T04:52:41;8.00;90.70
76996;DHT22;65929;49.062;10.338;2023-04-24T04:53:42;8.00;90.60
76996;DHT22;65929;49.062;10.338;2023-04-24T04:54:43;8.00;90.70
76996;DHT22;65929;49.062;10.338;2023-04-24T04:55:44;8.00;90.30
76996;DHT22;65929;49.062;10.338;2023-04-24T04:56:45;8.00;90.30
76996;DHT22;65929;49.062;10.338;2023-04-24T04:57:47;8.00;90.30
76996;DHT22;65929;49.062;10.338;2023-04-24T04:58:50;8.00;90.10
76996;DHT22;65929;49.062;10.338;2023-04-24T04:59:51;8.10;90.00
76996;DHT22;65929;49.062;10.338;2023-04-24T05:00:52;8.10;89.90
76996;DHT22;65929;49.062;10.338;2023-04-24T05:01:53;8.10;89.90
76996;DHT22;65929;49.062;10.338;2023-04-24T05:02:54;8.10;89.90
76996;DHT22;65929;49.062;10.338;2023-04-24T05:03:55;8.10;89.90
76996;DHT22;65929;49.062;10.338;2023-04-24T05:04:56;8.10;89.90
76996;DHT22;65929;49.062;10.338;2023-04-24T05:05:57;8.10;89.90
76996;DHT22;65929;49.062;10.338;2023-04-24T05:06:59;8.10;89.90
76996;DHT22;65929;49.062;10.338;2023-04-24T05:08:00;8.10;89.80
76996;DHT22;65929;49.062;10.338;2023-04-24T05:09:01;8.10;89.70
76996;DHT22;65929;49.062;10.338;2023-04-24T05:10:02;8.10;89.70
76996;DHT22;65929;49.062;10.338;2023-04-24T05:11:03;8.10;89.60
76996;DHT22;65929;49.062;10.338;2023-04-24T05:12:04;8.10;89.60
76996;DHT22;65929;49.062;10.338;2023-04-24T05:13:07;8.10;89.50
76996;DHT22;65929;49.062;10.338;2023-04-24T05:14:08;8.10;89.70
76996;DHT22;65929;49.062;10.338;2023-04-24T05:15:10;8.10;89.60
76996;DHT22;65929;49.062;10.338;2023-04-24T05:16:11;8.10;89.70
76996;DHT22;65929;49.062;10.338;2023-04-24T05:17:12;8.10;89.70
76996;DHT22;65929;49.062;10.338;2023-04-24T05:18:13;8.10;89.60
76996;DHT22;65929;49.062;10.338;2023-04-24T05:19:14;8.10;89.60
76996;DHT22;65929;49.062;10.338;2023-04-24T05:20:18;8.10;89.60
76996;DHT22;65929;49.062;10.338;2023-04-24T05:21:19;8.10;89.60
76996;DHT22;65929;49.062;10.338;2023-04-24T05:22:20;8.10;89.50
76996;DHT22;65929;49.062;10.338;2023-04-24T05:23:21;8.10;89.60
76996;DHT22;65929;49.062;10.338;2023-04-24T05:24:22;8.10;89.50
76996;DHT22;65929;49.062;10.338;2023-04-24T05:25:23;8.10;89.60
76996;DHT22;65929;49.062;10.338;2023-04-24T05:26:24;8.10;89.60
76996;DHT22;65929;49.062;10.338;2023-04-24T05:27:26;8.20;89.60
76996;DHT22;65929;49.062;10.338;2023-04-24T05:28:28;8.20;89.60
76996;DHT22;65929;49.062;10.338;2023-04-24T05:29:29;8.20;89.60
76996;DHT22;65929;49.062;10.338;2023-04-24T05:30:33;8.20;89.60
76996;DHT22;65929;49.062;10.338;2023-04-24T05:31:34;8.20;89.60
76996;DHT22;65929;49.062;10.338;2023-04-24T05:32:38;8.30;89.70
76996;DHT22;65929;49.062;10.338;2023-04-24T05:33:39;8.30;89.70
76996;DHT22;65929;49.062;10.338;2023-04-24T05:34:40;8.30;89.70
76996;DHT22;65929;49.062;10.338;2023-04-24T05:35:41;8.30;89.60
76996;DHT22;65929;49.062;10.338;2023-04-24T05:36:48;8.30;89.70
76996;DHT22;65929;49.062;10.338;2023-04-24T05:37:48;8.30;89.70
76996;DHT22;65929;49.062;10.338;2023-04-24T05:38:49;8.40;89.60
76996;DHT22;65929;49.062;10.338;2023-04-24T05:39:50;8.40;89.80
76996;DHT22;65929;49.062;10.338;2023-04-24T05:40:51;8.40;89.80
76996;DHT22;65929;49.062;10.338;2023-04-24T05:41:52;8.40;89.90
76996;DHT22;65929;49.062;10.338;2023-04-24T05:42:53;8.40;89.90
76996;DHT22;65929;49.062;10.338;2023-04-24T05:43:56;8.40;89.90
76996;DHT22;65929;49.062;10.338;2023-04-24T05:44:56;8.40;89.80
76996;DHT22;65929;49.062;10.338;2023-04-24T05:45:57;8.40;90.00
76996;DHT22;65929;49.062;10.338;2023-04-24T05:46:58;8.40;90.00
76996;DHT22;65929;49.062;10.338;2023-04-24T05:47:59;8.40;90.40
76996;DHT22;65929;49.062;10.338;2023-04-24T05:49:00;8.40;90.90
76996;DHT22;65929;49.062;10.338;2023-04-24T05:50:02;8.40;91.20
76996;DHT22;65929;49.062;10.338;2023-04-24T05:51:04;8.40;91.50
76996;DHT22;65929;49.062;10.338;2023-04-24T05:52:05;8.30;91.90
76996;DHT22;65929;49.062;10.338;2023-04-24T05:53:09;8.30;90.90
76996;DHT22;65929;49.062;10.338;2023-04-24T05:54:11;8.30;90.00
76996;DHT22;65929;49.062;10.338;2023-04-24T05:55:12;8.30;88.30
76996;DHT22;65929;49.062;10.338;2023-04-24T05:56:14;8.30;87.40
76996;DHT22;65929;49.062;10.338;2023-04-24T05:57:18;8.20;86.90
76996;DHT22;65929;49.062;10.338;2023-04-24T05:58:19;8.20;87.60
76996;DHT22;65929;49.062;10.338;2023-04-24T05:59:22;8.20;87.70
76996;DHT22;65929;49.062;10.338;2023-04-24T06:00:24;8.10;87.50
76996;DHT22;65929;49.062;10.338;2023-04-24T06:01:25;8.10;87.70
76996;DHT22;65929;49.062;10.338;2023-04-24T06:02:26;8.10;88.00
76996;DHT22;65929;49.062;10.338;2023-04-24T06:03:28;8.10;88.00
76996;DHT22;65929;49.062;10.338;2023-04-24T06:04:29;8.10;88.20
76996;DHT22;65929;49.062;10.338;2023-04-24T06:05:30;8.10;88.70
76996;DHT22;65929;49.062;10.338;2023-04-24T06:06:31;8.10;89.00
76996;DHT22;65929;49.062;10.338;2023-04-24T06:07:33;8.10;89.50
76996;DHT22;65929;49.062;10.338;2023-04-24T06:08:34;8.10;90.10
76996;DHT22;65929;49.062;10.338;2023-04-24T06:09:35;8.10;90.20
76996;DHT22;65929;49.062;10.338;2023-04-24T06:10:39;8.10;89.60
76996;DHT22;65929;49.062;10.338;2023-04-24T06:11:40;8.20;89.70
76996;DHT22;65929;49.062;10.338;2023-04-24T06:12:40;8.20;89.50
76996;DHT22;65929;49.062;10.338;2023-04-24T06:13:41;8.20;89.20
76996;DHT22;65929;49.062;10.338;2023-04-24T06:14:44;8.30;89.60
76996;DHT22;65929;49.062;10.338;2023-04-24T06:15:45;8.30;89.90
76996;DHT22;65929;49.062;10.338;2023-04-24T06:16:46;8.30;89.60
76996;DHT22;65929;49.062;10.338;2023-04-24T06:17:47;8.30;89.10
76996;DHT22;65929;49.062;10.338;2023-04-24T06:18:48;8.40;89.00
76996;DHT22;65929;49.062;10.338;2023-04-24T06:19:49;8.40;87.50
76996;DHT22;65929;49.062;10.338;2023-04-24T06:20:53;8.40;87.00
76996;DHT22;65929;49.062;10.338;2023-04-24T06:21:55;8.40;88.50
76996;DHT22;65929;49.062;10.338;2023-04-24T06:22:56;8.40;88.40
76996;DHT22;65929;49.062;10.338;2023-04-24T06:23:57;8.40;88.00
76996;DHT22;65929;49.062;10.338;2023-04-24T06:24:59;8.40;87.60
76996;DHT22;65929;49.062;10.338;2023-04-24T06:26:00;8.40;88.60
76996;DHT22;65929;49.062;10.338;2023-04-24T06:27:01;8.40;87.90
76996;DHT22;65929;49.062;10.338;2023-04-24T06:28:02;8.30;87.50
76996;DHT22;65929;49.062;10.338;2023-04-24T06:29:03;8.40;88.40
76996;DHT22;65929;49.062;10.338;2023-04-24T06:30:07;8.40;89.10